Time;durP1;ratioP1;P1;durP2;ratioP2;P2;SDS_P1;SDS_P2;PMS_P1;PMS_P2;Temp;Humidity;BMP_temperature;BMP_pressure;BME280_temperature;BME280_humidity;BME280_pressure;Samples;Min_cycle;Max_cycle;Signal;HPM_P1;HPM_P2
2022/01/31 00:00:12;;;;;;;16.25;4.78;;;;;;;4.55;68.39;101523.72;5028407;28;20046;-69
2022/01/31 00:02:46;;;;;;;13.20;3.80;;;;;;;4.59;68.39;101503.72;5028626;28;20055;-70
2022/01/31 00:05:14;;;;;;;12.55;4.38;;;;;;;4.60;68.37;101476.75;5030557;28;20100;-72
2022/01/31 00:07:41;;;;;;;20.17;4.43;;;;;;;4.60;68.29;101466.31;5032488;28;20055;-70
2022/01/31 00:10:11;;;;;;;17.35;4.43;;;;;;;4.62;68.44;101475.91;5028757;28;20069;-69
2022/01/31 00:15:26;;;;;;;16.80;4.68;;;;;;;4.63;68.51;101424.53;5032186;28;20104;-70
2022/01/31 00:17:53;;;;;;;17.45;4.57;;;;;;;4.64;68.63;101413.22;5035892;28;20045;-70
2022/01/31 00:20:20;;;;;;;14.95;4.53;;;;;;;4.65;68.63;101392.31;5043414;28;20042;-70
2022/01/31 00:22:48;;;;;;;13.77;4.20;;;;;;;4.66;68.57;101381.00;5037869;28;20111;-70
2022/01/31 00:25:16;;;;;;;16.35;4.93;;;;;;;4.69;68.51;101381.91;5026542;28;20041;-70
2022/01/31 00:27:43;;;;;;;13.23;4.88;;;;;;;4.70;68.61;101381.03;5025180;28;20033;-71
2022/01/31 00:30:11;;;;;;;19.02;4.50;;;;;;;4.69;68.71;101368.84;5031519;28;20048;-71
2022/01/31 00:32:38;;;;;;;14.55;4.63;;;;;;;4.70;68.70;101363.59;5028213;28;20037;-71
2022/01/31 00:35:06;;;;;;;17.02;4.65;;;;;;;4.73;68.71;101360.16;5025336;28;20042;-70
2022/01/31 00:37:33;;;;;;;13.70;4.47;;;;;;;4.73;68.50;101345.34;5027750;28;20090;-71
2022/01/31 00:40:04;;;;;;;15.40;4.55;;;;;;;4.73;68.67;101327.06;5037550;28;20034;-70
2022/01/31 00:42:32;;;;;;;15.52;4.68;;;;;;;4.75;68.75;101314.88;5028935;28;20042;-71
2022/01/31 00:45:12;;;;;;;15.95;4.63;;;;;;;4.79;68.51;101294.84;5026171;28;20043;-70
2022/01/31 00:47:44;;;;;;;13.98;4.70;;;;;;;4.79;68.57;101281.78;5037033;28;20108;-69
2022/01/31 00:50:13;;;;;;;13.27;4.40;;;;;;;4.80;68.82;101263.50;5030847;28;20180;-68
2022/01/31 00:52:43;;;;;;;16.73;4.28;;;;;;;4.83;68.90;101267.88;5025051;28;20450;-68
2022/01/31 00:55:13;;;;;;;15.50;4.25;;;;;;;4.84;68.70;101256.53;5022670;28;20540;-68
2022/01/31 00:57:41;;;;;;;15.57;4.32;;;;;;;4.81;68.96;101240.88;5032991;28;20088;-69
2022/01/31 01:00:11;;;;;;;16.08;4.43;;;;;;;4.82;69.10;101224.31;5033251;28;20052;-69
2022/01/31 01:02:40;;;;;;;18.73;4.47;;;;;;;4.81;69.28;101212.97;5020279;28;20058;-69
2022/01/31 01:05:08;;;;;;;11.45;4.22;;;;;;;4.81;69.32;101199.91;5033722;28;20054;-71
2022/01/31 01:07:35;;;;;;;13.43;4.18;;;;;;;4.80;69.64;101190.34;5020123;28;20430;-69
2022/01/31 01:10:04;;;;;;;17.10;4.25;;;;;;;4.79;69.98;101192.97;5024784;28;20052;-70
2022/01/31 01:12:35;;;;;;;15.05;4.68;;;;;;;4.77;70.35;101177.31;5022895;28;20527;-70
2022/01/31 01:15:06;;;;;;;15.77;4.80;;;;;;;4.76;70.78;101162.50;5017845;28;20047;-71
2022/01/31 01:17:33;;;;;;;13.43;4.20;;;;;;;4.72;70.89;101160.75;5030840;28;20072;-70
2022/01/31 01:20:00;;;;;;;21.40;5.65;;;;;;;4.69;71.12;101139.84;5038346;28;20044;-71
2022/01/31 01:22:27;;;;;;;22.48;4.35;;;;;;;4.68;71.61;101139.88;5029617;28;20152;-71
2022/01/31 01:24:54;;;;;;;16.73;4.47;;;;;;;4.62;71.86;101136.41;5020214;28;21850;-71
2022/01/31 01:27:27;;;;;;;17.75;4.43;;;;;;;4.61;72.31;101126.81;5033678;28;20181;-71
2022/01/31 01:29:55;;;;;;;14.70;4.43;;;;;;;4.61;72.68;101121.59;5029213;28;20035;-70
2022/01/31 01:32:26;;;;;;;15.98;5.45;;;;;;;4.58;72.63;101113.75;5039558;28;20050;-70
2022/01/31 01:34:58;;;;;;;13.75;4.70;;;;;;;4.60;73.36;101112.03;5029758;28;20038;-68
2022/01/31 01:37:26;;;;;;;20.95;4.70;;;;;;;4.57;73.52;101100.72;5034538;28;20046;-68
2022/01/31 01:39:53;;;;;;;16.77;5.18;;;;;;;4.54;73.59;101078.06;5024897;28;20113;-70
2022/01/31 01:42:20;;;;;;;16.35;5.13;;;;;;;4.52;74.10;101077.22;5033863;28;20044;-69
2022/01/31 01:44:50;;;;;;;13.23;4.88;;;;;;;4.48;74.24;101058.06;5024948;28;20065;-69
2022/01/31 01:47:24;;;;;;;15.18;5.07;;;;;;;4.45;74.63;101045.03;5037006;28;20073;-69
2022/01/31 01:49:53;;;;;;;19.13;4.78;;;;;;;4.42;74.77;101039.81;5026580;28;20087;-68
2022/01/31 01:52:24;;;;;;;17.02;4.70;;;;;;;4.43;75.15;101027.59;5025576;28;20045;-70
2022/01/31 01:54:52;;;;;;;17.20;5.20;;;;;;;4.41;75.22;101030.22;5020612;28;20058;-69
2022/01/31 01:57:23;;;;;;;15.38;4.82;;;;;;;4.42;75.61;101020.66;5022432;28;20053;-70
2022/01/31 01:59:56;;;;;;;13.82;4.70;;;;;;;4.39;75.61;101005.84;5028448;28;20043;-71
2022/01/31 02:02:46;;;;;;;12.82;4.88;;;;;;;4.38;76.08;100995.44;5032866;28;20049;-72
2022/01/31 02:05:19;;;;;;;17.98;5.15;;;;;;;4.37;76.57;100997.19;5025418;28;20046;-70
2022/01/31 02:07:48;;;;;;;16.77;4.75;;;;;;;4.35;76.57;100985.88;5017591;28;20042;-69
2022/01/31 02:10:16;;;;;;;12.20;4.50;;;;;;;4.33;76.91;100982.38;5038999;28;20042;-71
2022/01/31 02:13:06;;;;;;;13.85;4.32;;;;;;;4.33;77.66;100971.94;5017790;28;20113;-71
2022/01/31 02:16:09;;;;;;;17.45;4.65;;;;;;;4.27;77.26;100962.38;5035386;28;20042;-70
2022/01/31 02:18:50;;;;;;;11.10;4.40;;;;;;;4.28;77.52;100955.41;5032803;28;20054;-69
2022/01/31 02:21:37;;;;;;;9.80;3.85;;;;;;;4.27;77.98;100933.69;5028672;28;20038;-70
2022/01/31 02:24:24;;;;;;;11.90;3.88;;;;;;;4.30;77.94;100910.19;5020630;28;20130;-70
2022/01/31 02:27:28;;;;;;;10.38;4.50;;;;;;;4.30;78.04;100907.59;5031156;28;20052;-69
2022/01/31 02:29:56;;;;;;;10.23;3.60;;;;;;;4.29;78.63;100897.13;5030518;28;20050;-68
2022/01/31 02:32:25;;;;;;;10.85;4.13;;;;;;;4.29;78.35;100887.56;5030319;28;20046;-70
2022/01/31 02:34:58;;;;;;;13.68;4.22;;;;;;;4.28;78.51;100878.00;5020546;28;20042;-70
2022/01/31 02:37:25;;;;;;;12.57;4.10;;;;;;;4.30;78.69;100865.81;5024021;28;20043;-70
2022/01/31 02:40:01;;;;;;;11.57;4.10;;;;;;;4.31;78.82;100867.56;5041268;28;20493;-71
2022/01/31 02:42:28;;;;;;;14.18;4.25;;;;;;;4.34;79.07;100867.53;5031560;28;20046;-70
2022/01/31 02:44:55;;;;;;;12.60;3.70;;;;;;;4.32;79.68;100864.03;5027402;28;20037;-70
2022/01/31 02:47:28;;;;;;;15.07;4.95;;;;;;;4.34;79.75;100859.69;5034142;28;20042;-72
2022/01/31 02:50:02;;;;;;;13.93;4.15;;;;;;;4.35;79.96;100871.03;5017499;28;20042;-69
2022/01/31 02:52:34;;;;;;;11.27;4.22;;;;;;;4.33;80.13;100852.72;5029617;28;20062;-71
2022/01/31 02:55:05;;;;;;;15.32;4.60;;;;;;;4.37;80.21;100844.91;5023451;28;20042;-68
2022/01/31 02:57:34;;;;;;;13.98;4.28;;;;;;;4.40;80.84;100837.06;5027697;28;20046;-71
2022/01/31 03:00:01;;;;;;;9.02;4.30;;;;;;;4.41;81.13;100828.38;5030137;28;20038;-69
2022/01/31 03:02:39;;;;;;;8.10;3.63;;;;;;;4.42;81.34;100822.28;5031666;28;20675;-70
2022/01/31 03:05:08;;;;;;;8.77;3.83;;;;;;;4.46;81.54;100816.13;5028019;28;20050;-70
2022/01/31 03:07:36;;;;;;;9.05;4.43;;;;;;;4.49;81.55;100806.53;5023167;28;20121;-71
2022/01/31 03:10:03;;;;;;;10.77;3.95;;;;;;;4.54;81.67;100798.69;5019646;28;20039;-70
2022/01/31 03:12:32;;;;;;;14.30;3.83;;;;;;;4.56;81.51;100788.25;5033635;28;20046;-74
2022/01/31 03:15:03;;;;;;;10.88;4.53;;;;;;;4.59;81.86;100791.69;5033916;28;20485;-73
2022/01/31 03:17:50;;;;;;;10.70;4.00;;;;;;;4.61;81.76;100795.19;5026945;28;20125;-72
2022/01/31 03:20:22;;;;;;;10.27;4.68;;;;;;;4.66;82.27;100784.69;5033170;28;20046;-72
2022/01/31 03:22:49;;;;;;;11.35;4.65;;;;;;;4.69;82.21;100784.66;5056448;28;20475;-72
2022/01/31 03:25:18;;;;;;;11.15;4.40;;;;;;;4.72;82.32;100776.81;5041102;28;20045;-68
2022/01/31 03:27:47;;;;;;;9.07;4.30;;;;;;;4.76;82.39;100777.66;5021894;28;20501;-70
2022/01/31 03:30:19;;;;;;;9.77;3.92;;;;;;;4.80;82.87;100782.84;5030213;28;20042;-71
2022/01/31 03:32:48;;;;;;;14.32;4.70;;;;;;;4.84;82.91;100770.63;5034022;28;20050;-69
2022/01/31 03:35:17;;;;;;;11.27;4.82;;;;;;;4.86;82.91;100776.69;5023832;28;20526;-71
2022/01/31 03:37:44;;;;;;;8.90;4.57;;;;;;;4.91;83.03;100776.66;5031106;28;20088;-70
2022/01/31 03:40:15;;;;;;;9.82;4.38;;;;;;;4.95;83.63;100773.16;5041764;28;20064;-73
2022/01/31 03:42:42;;;;;;;11.38;5.07;;;;;;;4.98;83.22;100762.69;5014464;28;20054;-73
2022/01/31 03:45:10;;;;;;;8.05;3.80;;;;;;;5.01;83.27;100757.41;5029729;28;20097;-72
2022/01/31 03:47:44;;;;;;;15.18;4.65;;;;;;;5.02;83.92;100756.53;5028920;28;20065;-73
2022/01/31 03:50:18;;;;;;;9.82;3.97;;;;;;;5.04;83.47;100741.72;5029140;28;20501;-72
2022/01/31 03:52:51;;;;;;;10.60;3.80;;;;;;;5.07;83.15;100744.31;5034518;28;20500;-72
2022/01/31 03:55:18;;;;;;;12.85;3.80;;;;;;;5.09;83.35;100739.94;5025837;28;20170;-70
2022/01/31 03:57:49;;;;;;;9.75;3.53;;;;;;;5.13;83.39;100736.41;5033125;28;20129;-71
2022/01/31 04:00:49;;;;;;;10.70;4.00;;;;;;;5.18;83.29;100730.28;5044589;28;20050;-70
2022/01/31 04:03:16;;;;;;;14.57;3.80;;;;;;;5.19;83.48;100734.63;5025867;28;20054;-71
2022/01/31 04:05:44;;;;;;;11.30;3.75;;;;;;;5.22;83.25;100729.34;5022028;28;20055;-70
2022/01/31 04:08:12;;;;;;;10.20;3.20;;;;;;;5.27;83.15;100733.66;5023439;28;20534;-70
2022/01/31 04:10:39;;;;;;;12.68;3.40;;;;;;;5.32;82.98;100731.00;5024617;28;20651;-70
2022/01/31 04:13:06;;;;;;;12.15;3.47;;;;;;;5.34;82.79;100734.47;5033470;28;20416;-74
2022/01/31 04:15:39;;;;;;;10.07;2.97;;;;;;;5.39;82.62;100737.03;5040088;28;20501;-75
2022/01/31 04:18:06;;;;;;;11.55;2.78;;;;;;;5.41;82.52;100723.06;5026993;28;20069;-76
2022/01/31 04:20:34;;;;;;;15.25;3.10;;;;;;;5.41;81.65;100717.81;5021478;28;20039;-76
2022/01/31 04:23:07;;;;;;;9.73;2.50;;;;;;;5.49;81.21;100711.66;5034132;28;20050;-71
2022/01/31 04:25:51;;;;;;;9.93;2.37;;;;;;;5.54;81.09;100713.34;5028278;28;20505;-71
2022/01/31 04:28:31;;;;;;;9.10;2.33;;;;;;;5.56;80.54;100721.16;5023427;28;20038;-71
2022/01/31 04:31:14;;;;;;;14.48;2.40;;;;;;;5.58;80.24;100720.25;5027840;28;20719;-70
2022/01/31 04:33:42;;;;;;;10.93;1.83;;;;;;;5.63;78.88;100711.50;5025741;28;20551;-71
2022/01/31 04:36:15;;;;;;;9.85;2.33;;;;;;;5.65;78.90;100720.19;5032041;28;20492;-71
2022/01/31 04:38:47;;;;;;;7.47;1.60;;;;;;;5.70;78.02;100710.53;5023314;28;20482;-70
2022/01/31 04:41:16;;;;;;;8.73;2.03;;;;;;;5.72;78.16;100699.16;5035865;28;20038;-71
2022/01/31 04:43:46;;;;;;;12.27;2.00;;;;;;;5.74;77.50;100704.41;5020493;28;20046;-70
2022/01/31 04:46:13;;;;;;;10.70;2.00;;;;;;;5.74;77.69;100694.78;5029652;28;20038;-70
2022/01/31 04:48:43;;;;;;;11.48;2.08;;;;;;;5.79;77.46;100699.09;5028686;28;20378;-69
2022/01/31 04:51:12;;;;;;;11.95;1.60;;;;;;;5.79;76.79;100704.34;5028177;28;20034;-70
2022/01/31 04:53:39;;;;;;;16.80;2.55;;;;;;;5.80;76.94;100708.69;5041834;28;20034;-71
2022/01/31 04:56:07;;;;;;;19.52;2.15;;;;;;;5.83;76.63;100698.16;5020363;28;20053;-70
2022/01/31 04:58:34;;;;;;;13.30;1.85;;;;;;;5.82;76.76;100699.03;5031269;28;20085;-71
2022/01/31 05:01:01;;;;;;;8.98;2.03;;;;;;;5.80;76.43;100695.59;5026208;28;20041;-72
2022/01/31 05:03:30;;;;;;;12.52;2.20;;;;;;;5.82;76.46;100686.84;5028242;28;20140;-71
2022/01/31 05:05:57;;;;;;;15.02;1.77;;;;;;;5.82;76.17;100684.22;5024618;28;20117;-71
2022/01/31 05:08:27;;;;;;;10.48;1.95;;;;;;;5.81;75.71;100687.72;5032637;28;20054;-71
2022/01/31 05:10:54;;;;;;;13.38;1.85;;;;;;;5.85;75.25;100681.56;5024978;28;20037;-71
2022/01/31 05:13:22;;;;;;;8.43;1.63;;;;;;;5.85;75.29;100688.56;5027120;28;20045;-71
2022/01/31 05:15:53;;;;;;;10.82;1.60;;;;;;;5.81;75.27;100666.81;5025204;28;20038;-71
2022/01/31 05:18:21;;;;;;;10.63;1.80;;;;;;;5.80;74.66;100672.91;5027109;28;20121;-70
2022/01/31 05:20:48;;;;;;;9.57;1.90;;;;;;;5.83;74.34;100666.78;5018307;28;20098;-69
2022/01/31 05:23:15;;;;;;;9.73;1.75;;;;;;;5.83;74.45;100677.22;5024949;28;20096;-71
2022/01/31 05:25:44;;;;;;;13.15;1.65;;;;;;;5.81;74.06;100665.91;5022879;28;20122;-71
2022/01/31 05:28:14;;;;;;;10.85;1.63;;;;;;;5.79;74.30;100662.47;5022334;28;20566;-72
2022/01/31 05:30:41;;;;;;;12.38;1.73;;;;;;;5.78;73.56;100642.44;5023871;28;20042;-71
2022/01/31 05:33:08;;;;;;;13.60;2.05;;;;;;;5.78;73.74;100634.59;5043209;28;20045;-69
2022/01/31 05:35:36;;;;;;;11.02;1.35;;;;;;;5.78;73.76;100645.06;5030500;28;20042;-67
2022/01/31 05:38:03;;;;;;;11.82;2.08;;;;;;;5.78;73.70;100640.66;5031336;28;20042;-69
2022/01/31 05:40:31;;;;;;;10.90;2.15;;;;;;;5.77;73.33;100632.84;5029552;28;20052;-70
2022/01/31 05:42:58;;;;;;;10.43;2.22;;;;;;;5.77;73.94;100628.47;5024556;28;20116;-68
2022/01/31 05:45:25;;;;;;;13.98;2.03;;;;;;;5.74;74.11;100633.78;5028587;28;20038;-70
2022/01/31 05:47:52;;;;;;;15.10;2.08;;;;;;;5.71;74.57;100621.56;5028423;28;20042;-69
2022/01/31 05:50:19;;;;;;;9.82;1.60;;;;;;;5.70;74.28;100629.44;5024646;28;20050;-69
2022/01/31 05:52:46;;;;;;;13.25;2.08;;;;;;;5.70;74.60;100616.38;5020205;28;20517;-70
2022/01/31 05:55:14;;;;;;;10.95;1.88;;;;;;;5.69;74.39;100625.97;5034816;28;20035;-70
2022/01/31 05:57:43;;;;;;;14.23;2.50;;;;;;;5.66;75.27;100632.97;5028423;28;20042;-70
2022/01/31 06:00:12;;;;;;;16.52;2.25;;;;;;;5.56;76.01;100672.34;5019566;28;20829;-70
2022/01/31 06:02:39;;;;;;;3.83;1.00;;;;;;;5.25;76.90;100716.25;5028055;28;20046;-69
2022/01/31 06:05:09;;;;;;;7.72;1.27;;;;;;;4.78;77.21;100706.22;5028344;28;20042;-67
2022/01/31 06:07:36;;;;;;;8.18;1.02;;;;;;;4.40;79.40;100696.09;5030692;28;20049;-68
2022/01/31 06:10:03;;;;;;;5.00;0.70;;;;;;;4.18;80.46;100684.03;5027108;28;20483;-70
2022/01/31 06:12:32;;;;;;;7.70;1.75;;;;;;;4.01;80.57;100693.72;5038736;28;20149;-71
2022/01/31 06:14:59;;;;;;;8.80;1.25;;;;;;;3.86;81.70;100674.69;5026139;28;20053;-71
2022/01/31 06:17:26;;;;;;;6.13;1.05;;;;;;;3.78;82.32;100678.19;5031698;28;20070;-71
2022/01/31 06:19:53;;;;;;;4.25;0.95;;;;;;;3.70;82.96;100662.59;5022932;28;20042;-71
2022/01/31 06:22:20;;;;;;;10.07;1.40;;;;;;;3.68;83.46;100657.38;5040924;28;20110;-69
2022/01/31 06:24:47;;;;;;;7.47;1.80;;;;;;;3.66;83.56;100640.03;5022387;28;20568;-70
2022/01/31 06:27:27;;;;;;;7.95;1.58;;;;;;;3.66;84.00;100630.44;5034716;28;20049;-69
2022/01/31 06:29:54;;;;;;;6.00;1.80;;;;;;;3.68;84.11;100640.88;5035880;28;20129;-70
2022/01/31 06:32:27;;;;;;;7.03;1.52;;;;;;;3.69;84.43;100626.94;5033847;28;20038;-70
2022/01/31 06:34:55;;;;;;;9.68;1.50;;;;;;;3.72;84.60;100629.56;5030234;28;20826;-69
2022/01/31 06:37:23;;;;;;;12.38;1.50;;;;;;;3.78;84.43;100631.25;5029439;28;20125;-70
2022/01/31 06:39:50;;;;;;;7.90;1.55;;;;;;;3.79;84.47;100625.19;5033846;28;20052;-70
2022/01/31 06:42:17;;;;;;;8.43;1.38;;;;;;;3.84;84.42;100621.66;5033019;28;20042;-70
2022/01/31 06:44:44;;;;;;;7.70;1.42;;;;;;;3.87;84.56;100629.44;5032685;28;20493;-70
2022/01/31 06:47:12;;;;;;;9.38;2.00;;;;;;;3.89;84.51;100635.53;5032814;28;20038;-71
2022/01/31 06:49:39;;;;;;;15.45;1.83;;;;;;;3.93;84.60;100627.69;5032697;28;20117;-70
2022/01/31 06:52:06;;;;;;;8.82;1.67;;;;;;;3.97;84.75;100630.28;5027654;28;20117;-71
2022/01/31 06:54:33;;;;;;;11.35;1.83;;;;;;;4.02;84.58;100619.81;5038161;28;20535;-70
2022/01/31 06:57:01;;;;;;;10.80;1.90;;;;;;;4.03;84.66;100632.84;5029976;28;20476;-69
2022/01/31 06:59:28;;;;;;;16.42;2.58;;;;;;;4.09;84.61;100642.38;5032135;28;20038;-70
2022/01/31 07:02:00;;;;;;;12.27;2.67;;;;;;;4.14;84.80;100629.28;5029451;28;20046;-70
2022/01/31 07:04:27;;;;;;;11.93;2.08;;;;;;;4.16;84.10;100649.28;5022318;28;20470;-69
2022/01/31 07:06:54;;;;;;;11.75;1.70;;;;;;;4.16;84.19;100648.41;5028705;28;20050;-70
2022/01/31 07:09:22;;;;;;;16.38;1.88;;;;;;;4.17;84.45;100655.38;5031820;28;20113;-69
2022/01/31 07:11:51;;;;;;;13.20;2.20;;;;;;;4.20;83.92;100652.75;5030289;28;20506;-68
2022/01/31 07:14:31;;;;;;;14.32;2.55;;;;;;;4.18;84.19;100646.66;5024114;28;20046;-70
2022/01/31 07:17:02;;;;;;;22.42;2.47;;;;;;;4.20;84.04;100655.34;5022563;28;20096;-71
2022/01/31 07:19:32;;;;;;;16.40;2.47;;;;;;;4.18;84.35;100646.66;5041281;28;20053;-70
2022/01/31 07:22:03;;;;;;;13.73;2.30;;;;;;;4.16;84.88;100649.28;5035885;28;20049;-70
2022/01/31 07:24:43;;;;;;;12.43;2.38;;;;;;;4.17;84.84;100650.16;5026578;28;20034;-69
2022/01/31 07:27:11;;;;;;;10.88;2.05;;;;;;;4.16;84.28;100628.41;5019766;28;20042;-69
2022/01/31 07:29:39;;;;;;;20.25;4.00;;;;;;;4.17;84.30;100635.34;5022699;28;20053;-70
2022/01/31 07:32:11;;;;;;;15.77;2.88;;;;;;;4.19;84.22;100636.22;5028172;28;20089;-69
2022/01/31 07:34:41;;;;;;;13.75;2.90;;;;;;;4.17;83.65;100642.31;5033755;28;20493;-69
2022/01/31 07:37:10;;;;;;;10.90;2.00;;;;;;;4.17;83.78;100631.88;5039557;28;20033;-69
2022/01/31 07:39:40;;;;;;;15.90;2.35;;;;;;;4.15;83.93;100629.28;5029805;28;20053;-70
2022/01/31 07:42:07;;;;;;;18.25;2.35;;;;;;;4.16;84.07;100632.75;5030890;28;20045;-69
2022/01/31 07:44:46;;;;;;;13.73;2.35;;;;;;;4.17;84.14;100617.06;5032072;28;20146;-68
2022/01/31 07:47:13;;;;;;;17.35;2.53;;;;;;;4.16;83.92;100631.03;5030370;28;20038;-68
2022/01/31 07:49:40;;;;;;;15.32;2.30;;;;;;;4.18;84.01;100612.75;5033883;28;20038;-68
2022/01/31 07:52:08;;;;;;;9.13;2.25;;;;;;;4.19;83.31;100625.75;5025252;28;20093;-68
2022/01/31 07:54:35;;;;;;;13.82;2.05;;;;;;;4.18;83.74;100607.53;5019533;28;20042;-69
2022/01/31 07:57:02;;;;;;;13.57;1.90;;;;;;;4.19;83.46;100609.25;5027289;28;20046;-69
2022/01/31 07:59:50;;;;;;;9.93;1.58;;;;;;;4.17;83.69;100614.47;5019373;28;20044;-69
2022/01/31 08:02:17;;;;;;;14.13;2.53;;;;;;;4.16;83.92;100617.09;5024184;28;20170;-70
2022/01/31 08:04:45;;;;;;;16.45;2.15;;;;;;;4.13;84.04;100615.38;5032346;28;20042;-69
2022/01/31 08:07:12;;;;;;;13.93;2.10;;;;;;;4.16;84.01;100617.97;5030722;28;20042;-69
2022/01/31 08:09:40;;;;;;;16.38;2.20;;;;;;;4.18;83.87;100618.81;5024010;28;20042;-69
2022/01/31 08:12:07;;;;;;;8.70;1.60;;;;;;;4.18;83.92;100624.03;5019652;28;20775;-69
2022/01/31 08:14:36;;;;;;;11.43;1.80;;;;;;;4.19;83.99;100628.38;5032955;28;20046;-69
2022/01/31 08:17:03;;;;;;;13.48;1.75;;;;;;;4.19;83.92;100630.97;5018595;28;20109;-68
2022/01/31 08:19:31;;;;;;;11.95;1.38;;;;;;;4.26;83.53;100626.59;5018702;28;20050;-71
2022/01/31 08:22:08;;;;;;;11.82;2.00;;;;;;;4.26;83.31;100610.94;5019039;28;20038;-69
2022/01/31 08:24:35;;;;;;;15.77;2.42;;;;;;;4.31;83.46;100623.94;5019722;28;20130;-69
2022/01/31 08:27:03;;;;;;;9.10;1.83;;;;;;;4.35;83.15;100610.84;5018391;28;20085;-69
2022/01/31 08:29:36;;;;;;;11.35;1.70;;;;;;;4.39;83.06;100619.53;5018805;28;20031;-69
2022/01/31 08:32:14;;;;;;;14.40;2.50;;;;;;;4.40;83.38;100602.97;5033898;28;20038;-65
2022/01/31 08:37:27;;;;;;;11.45;1.88;;;;;;;4.42;82.89;100636.94;5018841;28;20053;-67
2022/01/31 08:39:55;;;;;;;12.27;2.38;;;;;;;4.48;82.31;100610.75;5019028;28;20046;-68
2022/01/31 08:42:22;;;;;;;14.38;2.63;;;;;;;4.50;82.41;100607.25;5032174;28;20501;-69
2022/01/31 08:44:50;;;;;;;14.02;2.50;;;;;;;4.51;83.00;100634.25;5028364;28;20038;-69
2022/01/31 08:47:17;;;;;;;12.40;2.13;;;;;;;4.54;82.46;100615.06;5035890;28;20069;-69
2022/01/31 08:49:45;;;;;;;15.57;2.28;;;;;;;4.56;82.77;100615.91;5020440;28;20066;-69
2022/01/31 08:52:12;;;;;;;14.73;2.70;;;;;;;4.57;82.41;100646.38;5029429;28;20042;-69
2022/01/31 08:54:40;;;;;;;18.10;3.17;;;;;;;4.62;82.36;100632.41;5030844;28;20519;-69
2022/01/31 08:57:08;;;;;;;16.10;2.67;;;;;;;4.64;82.70;100633.22;5030412;28;20038;-69
2022/01/31 08:59:43;;;;;;;18.15;3.15;;;;;;;4.66;82.34;100618.41;5030896;28;20050;-69
2022/01/31 09:02:14;;;;;;;14.73;2.78;;;;;;;4.70;82.13;100611.41;5029020;28;20054;-70
2022/01/31 09:04:48;;;;;;;17.10;3.00;;;;;;;4.73;82.38;100597.50;5020138;28;20046;-70
2022/01/31 09:07:22;;;;;;;17.80;2.42;;;;;;;4.71;82.46;100607.06;5019004;28;20461;-70
2022/01/31 09:09:54;;;;;;;17.30;2.45;;;;;;;4.72;82.41;100620.09;5026310;28;20051;-69
2022/01/31 09:12:27;;;;;;;12.25;2.33;;;;;;;4.75;81.72;100612.25;5025782;28;20044;-69
2022/01/31 09:14:54;;;;;;;21.75;3.05;;;;;;;4.80;81.14;100620.03;5028135;28;20121;-72
2022/01/31 09:17:21;;;;;;;17.05;2.22;;;;;;;4.79;81.03;100616.53;5028870;28;20109;-69
2022/01/31 09:19:48;;;;;;;19.83;3.25;;;;;;;4.84;81.04;100631.31;5029200;28;20047;-67
2022/01/31 09:22:16;;;;;;;11.50;2.42;;;;;;;4.83;80.83;100640.91;5035654;28;20038;-68
2022/01/31 09:24:44;;;;;;;9.27;1.90;;;;;;;4.88;80.92;100596.47;5030372;28;20042;-67
2022/01/31 09:27:11;;;;;;;15.85;2.53;;;;;;;4.90;80.91;100612.97;5026189;28;20053;-69
2022/01/31 09:29:40;;;;;;;19.73;2.75;;;;;;;4.91;81.62;100623.41;5032059;28;20053;-67
2022/01/31 09:32:10;;;;;;;18.45;3.80;;;;;;;4.89;80.89;100624.28;5024530;28;20054;-66
2022/01/31 09:34:37;;;;;;;17.17;4.07;;;;;;;4.87;80.33;100602.56;5024119;28;20042;-70
2022/01/31 09:37:05;;;;;;;23.73;3.47;;;;;;;4.88;80.95;100633.03;5024073;28;20052;-66
2022/01/31 09:39:34;;;;;;;11.70;2.97;;;;;;;4.86;79.96;100671.34;5023227;28;20046;-69
2022/01/31 09:42:07;;;;;;;20.70;3.35;;;;;;;4.81;80.12;100660.97;5028334;28;20038;-68
2022/01/31 09:45:03;;;;;;;13.88;3.25;;;;;;;4.74;80.53;100644.47;5040809;28;20038;-68
2022/01/31 09:50:32;;;;;;;15.60;2.58;;;;;;;4.67;81.75;100663.69;5016282;28;20065;-68
2022/01/31 09:52:59;;;;;;;13.80;2.70;;;;;;;4.68;81.79;100664.53;5034072;28;20067;-69
2022/01/31 09:55:27;;;;;;;19.60;2.97;;;;;;;4.65;82.68;100676.75;5026581;28;20042;-67
2022/01/31 09:57:54;;;;;;;21.10;3.10;;;;;;;4.66;82.61;100686.31;5024892;28;20555;-66
2022/01/31 10:00:32;;;;;;;22.85;3.60;;;;;;;4.68;82.78;100680.22;5031290;28;20505;-68
2022/01/31 10:03:09;;;;;;;13.45;2.30;;;;;;;4.69;82.39;100680.19;5025576;28;20085;-68
2022/01/31 10:05:38;;;;;;;20.40;2.65;;;;;;;4.69;81.77;100688.03;5020434;28;20038;-69
2022/01/31 10:08:14;;;;;;;16.15;2.47;;;;;;;4.70;80.66;100681.94;5035189;28;20048;-69
2022/01/31 10:10:45;;;;;;;17.83;3.13;;;;;;;4.70;79.96;100701.97;5030203;28;20038;-70
2022/01/31 10:16:28;;;;;;;21.23;3.88;;;;;;;4.67;80.31;100710.69;5016778;28;20046;-70
2022/01/31 10:19:10;;;;;;;22.65;3.35;;;;;;;4.66;80.56;100717.66;5023768;28;20116;-68
2022/01/31 10:22:15;;;;;;;17.98;2.78;;;;;;;4.63;80.59;100738.56;5043679;28;20045;-67
2022/01/31 10:24:46;;;;;;;18.95;3.33;;;;;;;4.58;80.34;100726.44;5016592;28;20091;-71
2022/01/31 10:27:29;;;;;;;21.20;3.30;;;;;;;4.58;81.41;100782.13;5024901;28;20038;-66
2022/01/31 10:30:09;;;;;;;30.17;3.85;;;;;;;4.63;81.07;100742.94;5027688;28;20050;-68
2022/01/31 10:32:40;;;;;;;21.27;3.20;;;;;;;4.65;81.60;100739.41;5024344;28;20050;-68
2022/01/31 10:35:22;;;;;;;27.60;3.53;;;;;;;4.71;81.16;100750.72;5020204;28;20048;-70
2022/01/31 10:37:56;;;;;;;24.25;4.10;;;;;;;4.70;80.07;100786.38;5022815;28;20489;-68
2022/01/31 10:52:11;;;;;;;22.67;4.18;;;;;;;4.91;80.58;100761.00;5028535;28;20093;-69
2022/01/31 10:57:21;;;;;;;36.50;5.37;;;;;;;4.97;79.42;100776.63;5022610;28;20064;-68
2022/01/31 10:59:55;;;;;;;33.03;5.65;;;;;;;5.02;79.39;100795.75;5024387;28;20042;-67
2022/01/31 11:02:25;;;;;;;24.58;4.18;;;;;;;5.08;78.68;100772.19;5018717;28;20059;-67
2022/01/31 11:04:54;;;;;;;29.90;5.50;;;;;;;5.15;78.54;100817.41;5043197;28;20042;-68
2022/01/31 11:07:25;;;;;;;36.67;5.57;;;;;;;5.16;79.21;100787.78;5035331;28;20066;-68
2022/01/31 11:09:54;;;;;;;29.70;5.10;;;;;;;5.17;78.67;100801.72;5026803;28;20030;-68
2022/01/31 11:12:23;;;;;;;30.83;5.03;;;;;;;5.15;78.99;100791.28;5050370;28;20070;-68
2022/01/31 11:14:56;;;;;;;25.48;3.83;;;;;;;5.17;78.79;100814.81;5033808;28;20065;-66
2022/01/31 11:17:25;;;;;;;24.38;3.80;;;;;;;5.16;79.18;100805.22;5032552;28;20125;-68
2022/01/31 11:19:58;;;;;;;25.52;4.80;;;;;;;5.16;78.50;100850.50;5026243;28;20092;-68
2022/01/31 11:22:37;;;;;;;27.83;4.35;;;;;;;5.21;78.71;100816.50;5023766;28;20043;-68
2022/01/31 11:25:19;;;;;;;20.98;3.20;;;;;;;5.29;78.30;100846.06;5026750;28;20121;-67
2022/01/31 11:28:02;;;;;;;23.10;3.38;;;;;;;5.33;77.71;100821.63;5024013;28;20583;-66
2022/01/31 11:30:30;;;;;;;22.60;4.10;;;;;;;5.27;78.64;100842.59;5025586;28;20042;-68
2022/01/31 11:32:58;;;;;;;18.88;3.35;;;;;;;5.11;78.28;100823.56;5015359;28;20048;-68
2022/01/31 11:35:25;;;;;;;23.92;3.85;;;;;;;5.06;79.87;100861.91;5023034;28;20049;-67
2022/01/31 11:37:53;;;;;;;23.25;3.85;;;;;;;5.03;79.84;100847.13;5035073;28;20045;-67
2022/01/31 11:40:21;;;;;;;24.42;3.70;;;;;;;4.97;81.08;100834.97;5032557;28;20049;-70
2022/01/31 11:42:51;;;;;;;20.15;3.53;;;;;;;4.87;80.35;100835.91;5018458;28;20042;-68
2022/01/31 11:45:29;;;;;;;20.98;3.80;;;;;;;4.83;81.21;100836.84;5026325;28;20042;-70
2022/01/31 11:48:03;;;;;;;30.85;3.70;;;;;;;4.81;82.00;100842.03;5031828;28;20475;-68
2022/01/31 11:50:31;;;;;;;24.17;3.22;;;;;;;4.83;81.98;100847.28;5018017;28;20096;-66
2022/01/31 11:53:02;;;;;;;21.48;3.72;;;;;;;4.80;82.32;100855.13;5020542;28;20404;-70
2022/01/31 11:55:38;;;;;;;22.55;3.83;;;;;;;4.76;82.29;100859.50;5020942;28;20751;-68
2022/01/31 11:58:09;;;;;;;21.00;3.38;;;;;;;4.69;82.84;100854.31;5037612;28;20041;-68
2022/01/31 12:00:40;;;;;;;20.63;3.92;;;;;;;4.65;83.57;100858.69;5033756;28;20527;-70
2022/01/31 12:03:11;;;;;;;20.10;4.25;;;;;;;4.65;83.71;100866.53;5020684;28;20189;-69
2022/01/31 12:05:40;;;;;;;23.00;3.47;;;;;;;4.63;83.35;100882.19;5022068;28;20039;-71
2022/01/31 12:08:17;;;;;;;16.90;2.75;;;;;;;4.62;83.20;100876.97;5018192;28;20064;-70